createdAt,value
2022-09-10T00:01:55.670Z,19.60
2022-09-10T00:05:10.043Z,20.03
2022-09-10T00:08:35.134Z,20.08
2022-09-10T00:11:47.779Z,21.05
2022-09-10T00:15:09.721Z,20.40
2022-09-10T00:18:25.351Z,19.83
2022-09-10T00:21:37.403Z,21.05
2022-09-10T00:24:49.032Z,20.58
2022-09-10T00:28:08.949Z,23.68
2022-09-10T00:31:30.132Z,22.30
2022-09-10T00:34:41.903Z,23.00
2022-09-10T00:37:55.461Z,21.53
2022-09-10T00:41:28.992Z,21.00
2022-09-10T00:45:21.357Z,20.65
2022-09-10T00:48:37.050Z,22.28
2022-09-10T00:51:58.726Z,21.18
2022-09-10T00:55:12.523Z,21.20
2022-09-10T01:02:10.073Z,23.13
2022-09-10T01:05:23.546Z,22.90
2022-09-10T01:08:35.288Z,22.00
2022-09-10T01:12:12.506Z,23.43
2022-09-10T01:15:33.035Z,22.33
2022-09-10T01:18:58.121Z,22.10
2022-09-10T01:22:18.902Z,22.25
2022-09-10T01:25:49.751Z,23.13
2022-09-10T01:32:37.212Z,23.20
2022-09-10T01:35:54.208Z,23.33
2022-09-10T01:39:06.842Z,21.87
2022-09-10T01:42:18.694Z,20.30
2022-09-10T01:45:30.737Z,22.65
2022-09-10T01:49:07.783Z,22.48
2022-09-10T01:52:28.662Z,20.98
2022-09-10T01:56:04.397Z,22.95
2022-09-10T01:59:27.612Z,22.55
2022-09-10T02:02:46.172Z,22.30
2022-09-10T02:06:02.822Z,22.73
2022-09-10T02:09:18.834Z,24.15
2022-09-10T02:16:36.530Z,69.95
2022-09-10T02:19:55.762Z,25.30
2022-09-10T02:23:23.844Z,24.68
2022-09-10T02:26:37.039Z,24.35
2022-09-10T02:29:49.885Z,24.00
2022-09-10T02:33:13.589Z,22.58
2022-09-10T02:36:35.936Z,24.98
2022-09-10T02:39:58.974Z,25.58
2022-09-10T02:43:12.605Z,26.60
2022-09-10T02:46:24.529Z,25.93
2022-09-10T02:49:47.775Z,26.95
2022-09-10T02:53:01.018Z,28.18
2022-09-10T02:56:15.457Z,28.23
2022-09-10T02:59:29.140Z,29.73
2022-09-10T03:02:42.303Z,29.60
2022-09-10T03:06:07.793Z,29.80
2022-09-10T03:09:29.008Z,29.35
2022-09-10T03:12:41.088Z,29.18
2022-09-10T03:15:52.820Z,29.10
2022-09-10T03:19:04.424Z,29.23
2022-09-10T03:22:27.967Z,29.38
2022-09-10T03:25:40.567Z,27.05
2022-09-10T03:28:53.453Z,31.03
2022-09-10T03:32:06.033Z,30.60
2022-09-10T03:35:19.655Z,28.85
2022-09-10T03:38:32.667Z,32.98
2022-09-10T03:41:45.365Z,30.23
2022-09-10T03:44:58.734Z,31.43
2022-09-10T03:48:11.169Z,30.23
2022-09-10T03:51:23.242Z,31.95
2022-09-10T03:54:35.417Z,30.03
2022-09-10T03:57:47.115Z,30.05
2022-09-10T04:00:59.620Z,30.30
2022-09-10T04:04:12.724Z,29.10
2022-09-10T04:07:24.452Z,28.15
2022-09-10T04:10:36.837Z,28.83
2022-09-10T04:13:49.108Z,29.05
2022-09-10T04:17:01.471Z,29.73
2022-09-10T04:20:15.905Z,28.45
2022-09-10T04:23:29.489Z,29.15
2022-09-10T04:26:41.436Z,28.95
2022-09-10T04:29:55.280Z,28.20
2022-09-10T04:33:07.059Z,29.03
2022-09-10T04:36:20.357Z,28.83
2022-09-10T04:39:32.677Z,28.93
2022-09-10T04:42:45.410Z,25.35
2022-09-10T04:45:57.918Z,26.30
2022-09-10T04:49:11.176Z,28.80
2022-09-10T04:52:22.990Z,36.48
2022-09-10T04:55:38.119Z,28.90
2022-09-10T04:58:50.349Z,26.53
2022-09-10T05:02:03.740Z,25.38
2022-09-10T05:05:16.442Z,23.73
2022-09-10T05:08:28.558Z,23.28
2022-09-10T05:11:42.773Z,28.35
2022-09-10T05:14:56.438Z,27.10
2022-09-10T05:18:08.258Z,22.15
2022-09-10T05:21:22.770Z,23.68
2022-09-10T05:24:36.227Z,112.25
2022-09-10T05:27:51.399Z,39.18
2022-09-10T05:31:06.005Z,25.80
2022-09-10T05:34:18.497Z,24.28
2022-09-10T05:37:30.114Z,23.65
2022-09-10T05:40:41.810Z,23.75
2022-09-10T05:43:53.703Z,24.25
2022-09-10T05:47:06.607Z,23.60
2022-09-10T05:50:19.481Z,26.68
2022-09-10T05:53:31.371Z,26.13
2022-09-10T05:56:43.653Z,22.95
2022-09-10T05:59:56.720Z,27.73
2022-09-10T06:03:09.511Z,24.73
2022-09-10T06:09:40.778Z,23.20
2022-09-10T06:13:00.708Z,34.83
2022-09-10T06:16:13.083Z,28.65
2022-09-10T06:19:26.068Z,24.75
2022-09-10T06:22:39.993Z,23.40
2022-09-10T06:25:53.219Z,21.50
2022-09-10T06:29:05.237Z,22.35
2022-09-10T06:32:18.701Z,45.08
2022-09-10T06:35:33.787Z,24.55
2022-09-10T06:38:45.985Z,26.08
2022-09-10T06:41:58.269Z,24.45
2022-09-10T06:45:28.319Z,23.75
2022-09-10T06:48:50.380Z,23.83
2022-09-10T06:52:04.572Z,22.60
2022-09-10T06:55:17.137Z,21.40
2022-09-10T07:13:20.909Z,27.63
2022-09-10T07:16:47.015Z,25.60
2022-09-10T07:19:59.033Z,24.85
2022-09-10T07:23:13.079Z,23.43
2022-09-10T07:26:26.795Z,25.35
2022-09-10T07:29:41.586Z,25.35
2022-09-10T07:44:29.617Z,27.35
2022-09-10T07:47:43.283Z,26.03
2022-09-10T07:54:43.972Z,27.00
2022-09-10T07:57:59.976Z,27.68
2022-09-10T08:01:16.647Z,27.25
2022-09-10T08:04:31.514Z,44.35
2022-09-10T08:07:45.238Z,68.33
2022-09-10T08:22:04.117Z,25.93
2022-09-10T08:25:28.089Z,25.78
2022-09-10T08:33:12.034Z,40.13
2022-09-10T09:19:41.123Z,17.40
2022-09-10T09:29:26.418Z,11.45
2022-09-10T09:32:44.658Z,12.10
2022-09-10T09:36:16.589Z,10.83
2022-09-10T09:44:31.119Z,16.45
2022-09-10T11:23:45.304Z,13.98
2022-09-10T11:27:05.813Z,5.65
2022-09-10T11:30:21.713Z,3.60
2022-09-10T11:48:01.991Z,4.90
2022-09-10T11:51:22.395Z,3.35
2022-09-10T11:59:18.185Z,6.95
2022-09-10T12:03:09.127Z,6.18
2022-09-10T12:11:36.891Z,13.33
2022-09-10T13:22:22.030Z,2.10
2022-09-10T13:25:48.310Z,2.50
2022-09-10T13:29:32.856Z,3.53
2022-09-10T13:32:53.745Z,2.80
2022-09-10T17:04:32.513Z,4.53
2022-09-10T17:07:44.709Z,7.05
2022-09-10T17:10:57.265Z,5.23
2022-09-10T17:14:12.467Z,6.73
2022-09-10T17:17:24.321Z,4.50
2022-09-10T17:20:37.941Z,4.18
2022-09-10T17:23:49.867Z,7.03
2022-09-10T17:27:11.565Z,4.70
2022-09-10T17:30:24.058Z,6.93
2022-09-10T17:33:36.564Z,5.28
2022-09-10T17:36:50.866Z,20.75
2022-09-10T17:40:14.609Z,23.53
2022-09-10T17:43:27.488Z,7.20
2022-09-10T17:50:32.482Z,5.18
2022-09-10T17:53:51.690Z,6.63
2022-09-10T17:57:16.730Z,2.18
2022-09-10T18:24:44.833Z,1.70
2022-09-10T18:34:31.173Z,1.73
2022-09-10T18:37:43.111Z,4.10
2022-09-10T18:40:56.393Z,2.18
2022-09-10T18:44:11.542Z,1.83
2022-09-10T18:47:43.582Z,1.93
2022-09-10T18:50:49.101Z,1.95
2022-09-10T18:54:06.066Z,1.63
2022-09-10T18:57:17.638Z,1.80
2022-09-10T19:00:40.753Z,1.85
2022-09-10T19:03:54.566Z,2.85
2022-09-10T19:10:59.930Z,1.70
2022-09-10T19:14:18.016Z,1.65
2022-09-10T19:17:31.545Z,1.30
2022-09-10T19:20:45.296Z,1.20
2022-09-10T19:24:00.979Z,1.78
2022-09-10T19:27:12.734Z,1.80
2022-09-10T19:30:24.452Z,1.90
2022-09-10T19:33:36.300Z,1.40
2022-09-10T19:37:00.156Z,2.13
2022-09-10T19:40:14.921Z,1.30
2022-09-10T19:43:28.615Z,1.93
2022-09-10T19:46:41.495Z,1.70
2022-09-10T19:49:53.559Z,2.73
2022-09-10T19:53:05.283Z,1.18
2022-09-10T19:56:21.298Z,2.10
2022-09-10T19:59:43.918Z,1.55
2022-09-10T20:03:08.957Z,1.90
2022-09-10T20:06:25.512Z,1.68
2022-09-10T20:09:39.960Z,2.08
2022-09-10T20:13:01.970Z,1.83
2022-09-10T20:16:27.710Z,1.85
2022-09-10T20:19:41.117Z,2.75
2022-09-10T20:22:54.250Z,3.00
2022-09-10T20:26:20.012Z,2.30
2022-09-10T20:33:13.128Z,2.20
2022-09-10T20:36:38.442Z,1.90
2022-09-10T20:39:51.900Z,3.85
2022-09-10T20:43:05.009Z,3.08
2022-09-10T20:46:23.105Z,8.88
2022-09-10T20:53:29.023Z,4.05
2022-09-10T21:00:35.948Z,4.30
2022-09-10T21:07:38.570Z,4.03
2022-09-10T21:11:02.132Z,4.20
2022-09-10T21:18:08.219Z,4.10
2022-09-10T21:21:27.136Z,5.00
2022-09-10T21:24:47.214Z,4.90
2022-09-10T21:28:09.764Z,4.18
2022-09-10T21:35:02.098Z,4.53
2022-09-10T21:38:26.288Z,4.13
2022-09-10T21:41:42.693Z,3.78
2022-09-10T21:45:06.460Z,3.93
2022-09-10T21:48:18.058Z,3.70
2022-09-10T21:51:30.522Z,3.45
2022-09-10T21:54:42.164Z,3.10
2022-09-10T22:08:59.191Z,3.60
2022-09-10T22:15:53.871Z,3.35
2022-09-10T22:34:18.359Z,3.10
2022-09-10T22:56:32.332Z,3.70
2022-09-10T22:59:51.349Z,3.20
2022-09-10T23:06:55.717Z,3.38
2022-09-10T23:13:49.189Z,3.28
2022-09-10T23:17:01.441Z,3.03
2022-09-10T23:20:17.142Z,3.35
2022-09-10T23:23:36.128Z,3.28
2022-09-10T23:26:48.718Z,3.40
2022-09-10T23:30:08.157Z,3.30
2022-09-10T23:40:52.671Z,3.93
2022-09-10T23:55:44.355Z,5.50
2022-09-10T23:58:58.015Z,4.05
